Time;durP1;ratioP1;P1;durP2;ratioP2;P2;SDS_P1;SDS_P2;PMS_P1;PMS_P2;Temp;Humidity;BMP_temperature;BMP_pressure;BME280_temperature;BME280_humidity;BME280_pressure;Samples;Min_cycle;Max_cycle;Signal;HPM_P1;HPM_P2
2021/01/07 00:01:57;;;;;;;11.40;7.70;;;1.60;99.90;;;;;;5074046;28;20180;-59
2021/01/07 00:04:23;;;;;;;11.73;7.00;;;1.70;99.90;;;;;;5071435;28;20532;-63
2021/01/07 00:06:49;;;;;;;13.83;7.17;;;1.90;99.90;;;;;;5073345;28;20177;-60
2021/01/07 00:09:14;;;;;;;14.20;8.77;;;1.80;99.90;;;;;;5072094;28;20246;-59
2021/01/07 00:11:40;;;;;;;13.53;7.90;;;1.60;99.90;;;;;;5072574;28;20188;-60
2021/01/07 00:14:07;;;;;;;12.55;7.70;;;1.70;99.90;;;;;;5072532;28;20310;-61
2021/01/07 00:16:33;;;;;;;11.65;7.80;;;1.80;99.90;;;;;;5073571;28;20200;-61
2021/01/07 00:18:59;;;;;;;14.52;8.73;;;1.80;99.90;;;;;;5073545;28;20299;-61
2021/01/07 00:21:24;;;;;;;14.13;8.07;;;1.90;99.90;;;;;;5073824;28;20725;-62
2021/01/07 00:23:50;;;;;;;12.13;7.10;;;1.80;99.90;;;;;;5073274;28;20486;-60
2021/01/07 00:26:15;;;;;;;13.50;7.47;;;1.80;99.90;;;;;;5073609;28;20176;-62
2021/01/07 00:28:41;;;;;;;11.93;6.80;;;1.80;99.90;;;;;;5073720;28;20189;-60
2021/01/07 00:31:06;;;;;;;13.60;9.10;;;1.70;99.90;;;;;;5073734;28;20184;-60
2021/01/07 00:33:32;;;;;;;12.53;8.10;;;1.70;99.90;;;;;;5073482;28;20626;-59
2021/01/07 00:35:58;;;;;;;12.63;7.40;;;1.60;99.90;;;;;;5073741;28;20191;-61
2021/01/07 00:38:23;;;;;;;12.83;7.20;;;1.80;99.90;;;;;;5073969;28;20559;-60
2021/01/07 00:40:49;;;;;;;11.63;7.53;;;1.80;99.90;;;;;;5075470;28;20187;-61
2021/01/07 00:43:14;;;;;;;13.80;8.13;;;1.80;99.90;;;;;;5077095;28;20180;-59
2021/01/07 00:45:40;;;;;;;10.70;6.57;;;1.90;99.90;;;;;;5077127;28;20251;-60
2021/01/07 00:48:07;;;;;;;10.33;5.80;;;1.80;99.90;;;;;;5077207;28;20188;-59
2021/01/07 00:50:32;;;;;;;12.55;7.82;;;1.70;99.90;;;;;;5077233;28;20212;-59
2021/01/07 00:52:58;;;;;;;14.27;8.67;;;1.70;99.90;;;;;;5076028;28;20195;-62
2021/01/07 00:55:23;;;;;;;19.10;10.63;;;1.70;99.90;;;;;;5076884;28;20601;-62
2021/01/07 00:57:49;;;;;;;11.30;7.13;;;1.80;99.90;;;;;;5076940;28;20571;-62
2021/01/07 01:00:18;;;;;;;13.70;7.00;;;1.80;99.90;;;;;;5076890;28;20198;-60
2021/01/07 01:02:43;;;;;;;14.02;7.30;;;1.70;99.90;;;;;;5076894;28;20227;-60
2021/01/07 01:05:10;;;;;;;10.37;6.87;;;1.70;99.90;;;;;;5076794;28;20203;-61
2021/01/07 01:07:35;;;;;;;8.70;5.50;;;1.80;99.90;;;;;;5076795;28;20181;-60
2021/01/07 01:10:04;;;;;;;10.20;6.30;;;1.60;99.90;;;;;;5076884;28;20214;-60
2021/01/07 01:12:29;;;;;;;11.85;5.93;;;1.60;99.90;;;;;;5077072;28;20258;-62
2021/01/07 01:14:55;;;;;;;11.60;7.23;;;1.60;99.90;;;;;;5076889;28;20177;-60
2021/01/07 01:17:20;;;;;;;14.20;8.00;;;1.60;99.90;;;;;;5077071;28;20177;-59
2021/01/07 01:19:46;;;;;;;11.60;7.00;;;1.60;99.90;;;;;;5076856;28;20501;-62
2021/01/07 01:22:12;;;;;;;13.07;6.70;;;1.60;99.90;;;;;;5076909;28;20185;-61
2021/01/07 01:24:37;;;;;;;11.43;8.10;;;1.80;99.90;;;;;;5075474;28;20181;-61
2021/01/07 01:27:03;;;;;;;11.80;7.00;;;1.70;99.90;;;;;;5076665;28;20169;-61
2021/01/07 01:29:29;;;;;;;13.70;8.40;;;1.60;99.90;;;;;;5076806;28;20184;-62
2021/01/07 01:31:55;;;;;;;11.23;6.23;;;1.60;99.90;;;;;;5076563;28;20606;-60
2021/01/07 01:34:23;;;;;;;10.23;6.10;;;1.60;99.90;;;;;;5076249;28;20423;-61
2021/01/07 01:36:48;;;;;;;9.85;6.53;;;1.60;99.90;;;;;;5075688;28;20533;-60
2021/01/07 01:39:15;;;;;;;9.70;6.03;;;1.50;99.90;;;;;;5076443;28;20302;-60
2021/01/07 01:41:43;;;;;;;10.90;6.82;;;1.60;99.90;;;;;;5076248;28;20211;-60
2021/01/07 01:44:09;;;;;;;10.52;6.57;;;1.60;99.90;;;;;;5075497;28;20176;-59
2021/01/07 01:46:35;;;;;;;9.45;5.35;;;1.60;99.90;;;;;;5076421;28;20193;-61
2021/01/07 01:49:03;;;;;;;12.37;7.37;;;1.60;99.90;;;;;;5076648;28;20180;-60
2021/01/07 01:51:32;;;;;;;10.32;6.10;;;1.60;99.90;;;;;;5075872;28;20438;-61
2021/01/07 01:53:58;;;;;;;7.53;4.68;;;1.60;99.90;;;;;;5076378;28;20180;-61
2021/01/07 01:56:24;;;;;;;10.63;6.93;;;1.60;99.90;;;;;;5076424;28;20326;-61
2021/01/07 01:58:52;;;;;;;11.23;7.10;;;1.60;99.90;;;;;;5076273;28;20200;-61
2021/01/07 02:01:19;;;;;;;11.68;7.15;;;1.60;99.90;;;;;;5076124;28;20185;-59
2021/01/07 02:03:45;;;;;;;9.15;6.75;;;1.60;99.90;;;;;;5076094;28;20268;-61
2021/01/07 02:06:15;;;;;;;11.02;6.60;;;1.60;99.90;;;;;;5076201;28;20529;-61
2021/01/07 02:08:43;;;;;;;10.95;6.03;;;1.60;99.90;;;;;;5077055;28;20184;-59
2021/01/07 02:11:11;;;;;;;9.02;6.03;;;1.70;99.90;;;;;;5076526;28;20215;-59
2021/01/07 02:13:38;;;;;;;10.15;6.05;;;1.70;99.90;;;;;;5076409;28;20169;-60
2021/01/07 02:16:04;;;;;;;9.00;5.63;;;1.70;99.90;;;;;;5074324;28;20181;-59
2021/01/07 02:18:30;;;;;;;12.77;5.93;;;1.70;99.90;;;;;;5075436;28;20287;-60
2021/01/07 02:20:58;;;;;;;10.00;5.47;;;1.60;99.90;;;;;;5075666;28;20207;-60
2021/01/07 02:23:23;;;;;;;11.15;7.00;;;1.70;99.90;;;;;;5075096;28;20175;-59
2021/01/07 02:25:49;;;;;;;11.70;5.80;;;1.70;99.90;;;;;;5075327;28;20181;-61
2021/01/07 02:28:15;;;;;;;9.87;5.43;;;1.60;99.90;;;;;;5075245;28;20203;-61
2021/01/07 02:30:40;;;;;;;11.90;6.23;;;1.50;99.90;;;;;;5075020;28;20219;-61
2021/01/07 02:33:06;;;;;;;9.93;6.67;;;1.60;99.90;;;;;;5074838;28;20652;-58
2021/01/07 02:35:31;;;;;;;11.00;5.90;;;1.80;99.90;;;;;;5074869;28;20188;-58
2021/01/07 02:37:57;;;;;;;10.80;6.43;;;1.80;99.90;;;;;;5074707;28;20209;-58
2021/01/07 02:40:22;;;;;;;8.33;5.40;;;1.70;99.90;;;;;;5074885;28;20192;-60
2021/01/07 02:42:48;;;;;;;8.50;5.47;;;1.80;99.90;;;;;;5074839;28;20181;-60
2021/01/07 02:45:13;;;;;;;11.60;6.70;;;1.70;99.90;;;;;;5074846;28;20181;-59
2021/01/07 02:47:39;;;;;;;9.87;5.33;;;1.80;99.90;;;;;;5074780;28;20554;-59
2021/01/07 02:50:07;;;;;;;9.00;5.77;;;1.70;99.90;;;;;;5074649;28;20187;-61
2021/01/07 02:52:32;;;;;;;9.65;5.18;;;1.70;99.90;;;;;;5074379;28;20207;-61
2021/01/07 02:54:58;;;;;;;9.40;6.03;;;1.70;99.90;;;;;;5074354;28;20177;-61
2021/01/07 02:57:24;;;;;;;12.97;6.00;;;1.80;99.90;;;;;;5074860;28;20678;-61
2021/01/07 02:59:49;;;;;;;10.37;6.37;;;1.90;99.90;;;;;;5074356;28;20204;-61
2021/01/07 03:02:15;;;;;;;8.80;5.87;;;1.80;99.90;;;;;;5074724;28;20164;-61
2021/01/07 03:04:41;;;;;;;9.50;6.53;;;1.80;99.90;;;;;;5074254;28;20231;-61
2021/01/07 03:07:07;;;;;;;10.03;5.63;;;1.70;99.90;;;;;;5074650;28;20172;-61
2021/01/07 03:09:33;;;;;;;8.00;4.07;;;1.80;99.90;;;;;;5074512;28;20188;-61
2021/01/07 03:12:12;;;;;;;6.73;4.23;;;1.80;99.90;;;;;;5074500;28;20184;-61
2021/01/07 03:14:37;;;;;;;9.90;4.82;;;1.80;99.90;;;;;;5074312;28;20419;-61
2021/01/07 03:17:03;;;;;;;6.17;4.23;;;1.80;99.90;;;;;;5074604;28;20176;-61
2021/01/07 03:19:28;;;;;;;8.80;4.87;;;1.80;99.90;;;;;;5074994;28;20209;-61
2021/01/07 03:21:54;;;;;;;6.77;4.53;;;1.80;99.90;;;;;;5075022;28;20168;-61
2021/01/07 03:24:19;;;;;;;6.30;3.83;;;1.80;99.90;;;;;;5073807;28;20500;-58
2021/01/07 03:26:45;;;;;;;5.83;4.03;;;1.80;99.90;;;;;;5075564;28;20226;-58
2021/01/07 03:29:10;;;;;;;6.63;4.60;;;1.80;99.90;;;;;;5075140;28;20515;-58
2021/01/07 03:31:36;;;;;;;8.80;5.10;;;1.80;99.90;;;;;;5074946;28;20610;-58
2021/01/07 03:34:02;;;;;;;5.30;3.63;;;1.70;99.90;;;;;;5074710;28;20184;-58
2021/01/07 03:36:27;;;;;;;5.10;3.90;;;1.80;99.90;;;;;;5074829;28;20195;-58
2021/01/07 03:38:52;;;;;;;8.47;4.73;;;1.80;99.90;;;;;;5074506;28;20567;-58
2021/01/07 03:41:18;;;;;;;6.30;4.13;;;1.90;99.90;;;;;;5074674;28;20173;-58
2021/01/07 03:43:44;;;;;;;7.50;3.93;;;1.90;99.90;;;;;;5074779;28;20177;-61
2021/01/07 03:46:09;;;;;;;9.07;4.63;;;1.90;99.90;;;;;;5075017;28;20173;-60
2021/01/07 03:48:35;;;;;;;6.63;3.73;;;1.90;99.90;;;;;;5075118;28;20208;-61
2021/01/07 03:51:01;;;;;;;6.87;5.07;;;2.00;99.90;;;;;;5075552;28;20181;-59
2021/01/07 03:53:26;;;;;;;10.10;4.40;;;2.00;99.90;;;;;;5075196;28;20561;-59
2021/01/07 03:55:52;;;;;;;6.63;3.97;;;1.90;99.90;;;;;;5075234;28;20196;-60
2021/01/07 03:58:17;;;;;;;8.93;4.57;;;1.90;99.90;;;;;;5075492;28;20218;-60
2021/01/07 04:00:43;;;;;;;8.23;4.57;;;1.80;99.90;;;;;;5075001;28;20215;-59
2021/01/07 04:03:08;;;;;;;8.77;4.97;;;1.80;99.90;;;;;;5074449;28;20219;-59
2021/01/07 04:05:34;;;;;;;7.17;4.20;;;1.70;99.90;;;;;;5073794;28;20595;-60
2021/01/07 04:07:59;;;;;;;7.67;4.40;;;1.80;99.90;;;;;;5072685;28;20181;-59
2021/01/07 04:10:25;;;;;;;9.40;5.50;;;1.90;99.90;;;;;;5073770;28;20231;-59
2021/01/07 04:12:50;;;;;;;7.10;4.00;;;1.80;99.90;;;;;;5073772;28;20204;-59
2021/01/07 04:15:16;;;;;;;9.30;4.10;;;1.80;99.90;;;;;;5074584;28;20176;-59
2021/01/07 04:17:41;;;;;;;6.70;3.57;;;1.90;99.90;;;;;;5077633;28;20184;-59
2021/01/07 04:20:07;;;;;;;7.93;3.63;;;1.80;99.90;;;;;;5077713;28;20231;-60
2021/01/07 04:22:38;;;;;;;9.50;4.70;;;1.80;99.90;;;;;;5077405;28;20268;-61
2021/01/07 04:25:05;;;;;;;5.78;3.30;;;1.80;99.90;;;;;;5077762;28;20582;-60
2021/01/07 04:27:33;;;;;;;6.28;3.35;;;1.90;99.90;;;;;;5078058;28;20177;-60
2021/01/07 04:29:59;;;;;;;5.85;3.70;;;1.80;99.90;;;;;;5077749;28;20221;-59
2021/01/07 04:32:24;;;;;;;5.07;2.53;;;1.80;99.90;;;;;;5078258;28;20255;-61
2021/01/07 04:34:50;;;;;;;7.53;4.33;;;1.80;99.90;;;;;;5077852;28;20172;-60
2021/01/07 04:37:15;;;;;;;7.63;4.20;;;1.80;99.90;;;;;;5077640;28;20614;-60
2021/01/07 04:39:41;;;;;;;7.00;4.07;;;1.90;99.90;;;;;;5077646;28;20207;-59
2021/01/07 04:42:06;;;;;;;7.27;4.03;;;2.00;99.90;;;;;;5077192;28;20234;-60
2021/01/07 04:44:33;;;;;;;5.93;3.80;;;2.10;99.90;;;;;;5076971;28;20177;-59
2021/01/07 04:46:59;;;;;;;6.05;3.67;;;2.00;99.90;;;;;;5077253;28;20169;-59
2021/01/07 04:49:25;;;;;;;6.90;3.90;;;2.00;99.90;;;;;;5077198;28;20187;-59
2021/01/07 04:51:51;;;;;;;7.10;3.90;;;2.00;99.90;;;;;;5076933;28;20435;-59
2021/01/07 04:54:19;;;;;;;9.00;4.00;;;2.10;99.90;;;;;;5076843;28;20238;-60
2021/01/07 04:56:45;;;;;;;8.93;4.28;;;2.00;99.90;;;;;;5076918;28;20483;-60
2021/01/07 04:59:11;;;;;;;7.10;3.90;;;2.10;99.90;;;;;;5077118;28;20298;-59
2021/01/07 05:01:37;;;;;;;8.00;4.07;;;2.10;99.90;;;;;;5076697;28;20964;-59
2021/01/07 05:04:04;;;;;;;6.95;4.03;;;2.10;99.90;;;;;;5076719;28;20253;-61
2021/01/07 05:06:30;;;;;;;6.50;3.72;;;2.10;99.90;;;;;;5076873;28;20181;-61
2021/01/07 05:09:06;;;;;;;7.67;4.50;;;2.10;99.90;;;;;;5076111;28;20196;-60
2021/01/07 05:11:32;;;;;;;7.03;4.25;;;2.10;99.90;;;;;;5076164;28;20184;-60
2021/01/07 05:14:03;;;;;;;10.48;4.45;;;2.20;99.90;;;;;;5075723;28;20184;-60
2021/01/07 05:16:29;;;;;;;6.85;4.20;;;2.10;99.90;;;;;;5075998;28;20241;-60
2021/01/07 05:18:54;;;;;;;6.93;4.63;;;2.20;99.90;;;;;;5075724;28;20197;-60
2021/01/07 05:21:24;;;;;;;7.67;3.87;;;2.10;99.90;;;;;;5075796;28;20513;-60
2021/01/07 05:23:53;;;;;;;7.28;3.75;;;2.20;99.90;;;;;;5076970;28;20450;-61
2021/01/07 05:26:20;;;;;;;7.22;3.75;;;2.10;99.90;;;;;;5075097;28;20275;-60
2021/01/07 05:28:55;;;;;;;4.88;3.35;;;2.20;99.90;;;;;;5074409;28;20180;-60
2021/01/07 05:31:22;;;;;;;7.75;4.22;;;2.20;99.90;;;;;;5075640;28;20176;-60
2021/01/07 05:33:48;;;;;;;6.68;3.40;;;2.20;99.90;;;;;;5075373;28;20176;-61
2021/01/07 05:36:22;;;;;;;6.05;2.88;;;2.20;99.90;;;;;;5075692;28;20607;-60
2021/01/07 05:38:50;;;;;;;6.22;3.78;;;2.20;99.90;;;;;;5075556;28;20234;-61
2021/01/07 05:41:16;;;;;;;8.18;3.97;;;2.30;99.90;;;;;;5075663;28;20534;-61
2021/01/07 05:43:56;;;;;;;8.45;3.65;;;2.20;99.90;;;;;;5075247;28;20535;-59
2021/01/07 05:46:24;;;;;;;5.70;3.50;;;2.20;99.90;;;;;;5075408;28;20585;-60
2021/01/07 05:48:53;;;;;;;7.68;3.75;;;2.30;99.90;;;;;;5075430;28;20177;-60
2021/01/07 05:51:22;;;;;;;5.13;2.95;;;2.30;99.90;;;;;;5075325;28;20216;-60
2021/01/07 05:53:49;;;;;;;6.95;3.40;;;2.30;99.90;;;;;;5074867;28;20177;-60
2021/01/07 05:56:18;;;;;;;6.30;3.55;;;2.20;99.90;;;;;;5075223;28;20191;-61
2021/01/07 05:58:46;;;;;;;6.93;3.30;;;2.30;99.90;;;;;;5074992;28;20192;-60
2021/01/07 06:01:12;;;;;;;5.43;3.80;;;2.10;99.90;;;;;;5074943;28;20200;-59
2021/01/07 06:03:40;;;;;;;5.23;2.87;;;2.10;99.90;;;;;;5074773;28;20172;-59
2021/01/07 06:06:07;;;;;;;7.10;4.00;;;2.20;99.90;;;;;;5075371;28;20620;-59
2021/01/07 06:08:35;;;;;;;5.82;3.40;;;2.20;99.90;;;;;;5075647;28;20181;-60
2021/01/07 06:11:01;;;;;;;7.75;3.70;;;2.30;99.90;;;;;;5075262;28;20204;-60
2021/01/07 06:13:27;;;;;;;6.47;3.63;;;2.20;99.90;;;;;;5074717;28;20184;-59
2021/01/07 06:15:52;;;;;;;11.50;6.47;;;2.20;99.90;;;;;;5075029;28;20466;-60
2021/01/07 06:18:18;;;;;;;5.00;3.17;;;2.30;99.90;;;;;;5075040;28;20450;-60
2021/01/07 06:20:44;;;;;;;6.17;4.03;;;2.20;99.90;;;;;;5074791;28;20183;-60
2021/01/07 06:23:19;;;;;;;5.50;3.07;;;2.20;99.90;;;;;;5074658;28;20181;-60
2021/01/07 06:25:46;;;;;;;5.28;4.03;;;2.10;99.90;;;;;;5074734;28;20172;-60
2021/01/07 06:28:26;;;;;;;7.80;4.22;;;2.20;99.90;;;;;;5074778;28;20176;-60
2021/01/07 06:30:55;;;;;;;7.00;4.07;;;2.30;99.90;;;;;;5074673;28;20203;-60
2021/01/07 06:33:21;;;;;;;5.10;3.88;;;2.30;99.90;;;;;;5074229;28;20213;-60
2021/01/07 06:35:46;;;;;;;4.80;2.80;;;2.30;99.90;;;;;;5073408;28;20271;-60
2021/01/07 06:38:13;;;;;;;6.70;3.30;;;2.30;99.90;;;;;;5073924;28;20643;-60
2021/01/07 06:40:41;;;;;;;5.05;2.65;;;2.20;99.90;;;;;;5074525;28;20205;-60
2021/01/07 06:43:12;;;;;;;5.32;3.72;;;2.10;99.90;;;;;;5074066;28;20196;-60
2021/01/07 06:45:38;;;;;;;4.60;2.63;;;2.10;99.90;;;;;;5074347;28;20620;-60
2021/01/07 06:48:03;;;;;;;6.40;3.40;;;2.10;99.90;;;;;;5074645;28;20188;-60
2021/01/07 06:50:35;;;;;;;5.80;3.37;;;2.10;99.90;;;;;;5074249;28;20192;-62
2021/01/07 06:53:03;;;;;;;5.10;3.25;;;2.10;99.90;;;;;;5073870;28;20441;-62
2021/01/07 06:55:28;;;;;;;7.22;3.78;;;2.10;99.90;;;;;;5073961;28;20531;-63
2021/01/07 06:57:55;;;;;;;5.57;3.50;;;2.00;99.90;;;;;;5073847;28;20268;-62
2021/01/07 07:00:23;;;;;;;5.82;3.70;;;2.10;99.90;;;;;;5073622;28;20281;-62
2021/01/07 07:02:56;;;;;;;5.75;3.55;;;2.30;99.90;;;;;;5073963;28;20173;-62
2021/01/07 07:05:23;;;;;;;5.95;2.92;;;2.30;99.90;;;;;;5073533;28;20357;-61
2021/01/07 07:08:07;;;;;;;3.30;2.50;;;2.30;99.90;;;;;;5073776;28;20173;-63
2021/01/07 07:10:33;;;;;;;5.28;3.45;;;2.30;99.90;;;;;;5072983;28;20181;-63
2021/01/07 07:13:13;;;;;;;3.37;3.03;;;2.20;99.90;;;;;;5074041;28;20215;-61
2021/01/07 07:15:39;;;;;;;5.93;3.70;;;2.20;99.90;;;;;;5072887;28;20184;-57
2021/01/07 07:18:05;;;;;;;5.72;3.08;;;2.30;99.90;;;;;;5073646;28;20653;-58
2021/01/07 07:24:09;;;;;;;2.80;2.30;;;2.50;99.90;;;;;;5068055;28;20230;-59
2021/01/07 07:26:40;;;;;;;6.10;2.92;;;2.30;98.60;;;;;;5074271;28;20551;-59
2021/01/07 07:29:12;;;;;;;4.50;3.40;;;2.30;60.40;;;;;;5074189;28;20208;-59
2021/01/07 07:31:40;;;;;;;4.70;2.85;;;2.30;49.60;;;;;;5074073;28;20560;-56
2021/01/07 07:34:07;;;;;;;4.97;2.65;;;2.40;67.40;;;;;;5074234;28;20180;-57
2021/01/07 07:36:34;;;;;;;4.95;2.88;;;2.30;42.40;;;;;;5071655;28;20192;-59
2021/01/07 07:39:00;;;;;;;10.40;6.57;;;2.30;50.40;;;;;;5072320;28;20196;-58
2021/01/07 07:41:27;;;;;;;5.32;2.80;;;2.30;52.00;;;;;;5081750;28;20579;-58
2021/01/07 07:43:55;;;;;;;3.20;2.70;;;2.40;47.40;;;;;;5071922;28;20473;-59
2021/01/07 07:46:27;;;;;;;6.72;3.20;;;2.50;42.70;;;;;;5072951;28;20255;-58
2021/01/07 07:49:00;;;;;;;8.23;4.07;;;2.30;22.50;;;;;;5057967;28;20188;-59
2021/01/07 07:51:29;;;;;;;6.80;3.90;;;2.30;18.50;;;;;;5077172;28;20183;-62
2021/01/07 07:54:02;;;;;;;6.20;3.67;;;2.30;37.40;;;;;;5077842;28;20176;-61
2021/01/07 07:56:28;;;;;;;6.90;3.80;;;2.40;49.20;;;;;;5077913;28;20169;-59
2021/01/07 07:59:07;;;;;;;8.57;4.30;;;2.40;49.90;;;;;;5077794;28;20203;-59
2021/01/07 08:01:41;;;;;;;5.75;3.33;;;2.40;45.40;;;;;;5077618;28;20204;-59
2021/01/07 08:04:11;;;;;;;6.90;3.40;;;2.50;45.80;;;;;;5077016;28;20254;-59
2021/01/07 08:06:37;;;;;;;6.35;3.80;;;2.50;42.60;;;;;;5077787;28;20185;-58
2021/01/07 08:09:07;;;;;;;6.97;3.80;;;2.60;41.30;;;;;;5077549;28;20325;-58
2021/01/07 08:11:40;;;;;;;6.00;3.40;;;2.60;29.70;;;;;;5077716;28;20489;-59
2021/01/07 08:14:12;;;;;;;6.00;3.28;;;2.60;6.30;;;;;;5076984;28;20200;-63
2021/01/07 08:16:38;;;;;;;22.42;12.35;;;2.50;1.00;;;;;;5077716;28;20181;-60
2021/01/07 08:19:17;;;;;;;13.57;7.85;;;2.50;3.10;;;;;;5077237;28;20204;-63
2021/01/07 08:21:48;;;;;;;8.00;5.07;;;2.70;15.70;;;;;;5077592;28;20517;-60
2021/01/07 08:24:15;;;;;;;17.80;9.38;;;2.80;9.40;;;;;;5076739;28;20177;-61
2021/01/07 08:26:48;;;;;;;8.80;5.00;;;2.80;1.00;;;;;;5077219;28;20204;-59
2021/01/07 08:29:14;;;;;;;5.70;3.70;;;2.80;1.00;;;;;;5077628;28;20177;-61
2021/01/07 08:31:46;;;;;;;5.60;3.33;;;2.80;1.00;;;;;;5077107;28;20259;-61
2021/01/07 08:34:13;;;;;;;9.52;6.13;;;2.80;1.00;;;;;;5075486;28;20609;-62
2021/01/07 08:36:39;;;;;;;5.75;3.80;;;2.80;1.00;;;;;;5076914;28;20275;-64
2021/01/07 08:39:05;;;;;;;7.32;3.67;;;2.60;1.00;;;;;;5076564;28;20211;-61
2021/01/07 08:41:31;;;;;;;5.20;3.50;;;2.60;1.00;;;;;;5076439;28;20255;-58
2021/01/07 08:44:01;;;;;;;5.28;3.72;;;2.80;1.00;;;;;;5076139;28;20216;-62
2021/01/07 08:46:36;;;;;;;7.68;6.50;;;2.80;1.00;;;;;;5076418;28;20264;-59
2021/01/07 08:49:03;;;;;;;12.13;8.38;;;2.80;1.00;;;;;;5075416;28;20184;-60
2021/01/07 08:51:45;;;;;;;7.50;4.00;;;2.80;1.00;;;;;;5075198;28;20227;-60
2021/01/07 08:54:13;;;;;;;5.88;4.05;;;2.80;1.00;;;;;;5074634;28;20181;-62
2021/01/07 08:56:40;;;;;;;5.72;3.47;;;2.80;1.00;;;;;;5072978;28;20246;-62
2021/01/07 08:59:25;;;;;;;7.80;3.70;;;3.00;1.00;;;;;;5075798;28;20306;-65
2021/01/07 09:01:56;;;;;;;5.82;3.58;;;3.10;1.00;;;;;;5075381;28;20183;-64
2021/01/07 09:04:23;;;;;;;5.82;3.47;;;3.10;1.00;;;;;;5074909;28;20264;-59
2021/01/07 09:07:01;;;;;;;3.40;2.75;;;3.10;1.00;;;;;;5067442;28;20185;-59
2021/01/07 09:09:43;;;;;;;7.28;3.92;;;3.00;1.00;;;;;;5075482;28;20253;-61
2021/01/07 09:12:28;;;;;;;9.13;3.75;;;2.90;1.00;;;;;;5076083;28;20517;-60
2021/01/07 09:15:07;;;;;;;6.57;3.35;;;3.20;1.00;;;;;;5075091;28;20189;-61
2021/01/07 09:17:48;;;;;;;7.07;4.05;;;3.20;1.00;;;;;;5075860;28;20617;-59
2021/01/07 09:20:18;;;;;;;4.63;3.13;;;3.10;1.00;;;;;;5076153;28;20223;-59
2021/01/07 09:22:44;;;;;;;6.90;4.53;;;3.20;1.00;;;;;;5075610;28;20217;-60
2021/01/07 09:25:20;;;;;;;6.30;4.13;;;3.10;1.00;;;;;;5075635;28;20176;-58
2021/01/07 09:27:46;;;;;;;5.88;3.50;;;3.20;1.00;;;;;;5074830;28;20205;-57
2021/01/07 09:30:12;;;;;;;7.40;4.53;;;3.30;1.00;;;;;;5075987;28;20613;-57
2021/01/07 09:32:38;;;;;;;7.18;4.50;;;3.40;1.00;;;;;;5076070;28;20268;-63
2021/01/07 09:35:05;;;;;;;5.20;3.50;;;3.40;1.00;;;;;;5075619;28;20719;-60
2021/01/07 09:37:34;;;;;;;5.63;3.38;;;3.30;1.00;;;;;;5075295;28;20918;-60
2021/01/07 09:40:00;;;;;;;8.60;4.20;;;3.30;1.00;;;;;;5075740;28;20236;-63
2021/01/07 09:42:29;;;;;;;6.97;4.15;;;3.30;1.00;;;;;;5075443;28;20208;-63
2021/01/07 09:44:56;;;;;;;11.13;6.47;;;3.30;1.00;;;;;;5076175;28;20258;-60
2021/01/07 09:47:23;;;;;;;11.35;6.35;;;3.60;1.00;;;;;;5076372;28;20609;-60
2021/01/07 09:49:50;;;;;;;4.18;2.90;;;3.80;1.00;;;;;;5076168;28;20531;-60
2021/01/07 09:52:16;;;;;;;4.28;2.90;;;3.70;1.00;;;;;;5075039;28;20516;-61
2021/01/07 09:54:42;;;;;;;5.40;2.95;;;3.80;1.00;;;;;;5075219;28;20184;-60
2021/01/07 09:57:09;;;;;;;6.18;3.05;;;3.90;1.00;;;;;;5075631;28;20205;-58
2021/01/07 09:59:35;;;;;;;6.07;2.90;;;4.00;1.00;;;;;;5075653;28;20208;-59
2021/01/07 10:02:07;;;;;;;5.95;3.67;;;4.00;99.90;;;;;;5075772;28;20252;-64
2021/01/07 10:04:33;;;;;;;5.88;3.00;;;4.00;99.90;;;;;;5075196;28;20259;-66
2021/01/07 10:07:00;;;;;;;5.03;3.35;;;4.00;99.90;;;;;;5075539;28;20268;-65
2021/01/07 10:09:26;;;;;;;6.40;3.40;;;3.80;99.90;;;;;;5075625;28;20191;-66
2021/01/07 10:11:56;;;;;;;5.32;2.65;;;3.70;99.90;;;;;;5075411;28;20674;-65
2021/01/07 10:14:23;;;;;;;5.50;3.10;;;3.70;99.90;;;;;;5074332;28;20176;-64
2021/01/07 10:16:53;;;;;;;6.50;2.65;;;3.80;99.90;;;;;;5074714;28;20173;-64
2021/01/07 10:19:20;;;;;;;4.57;2.40;;;4.00;99.90;;;;;;5074272;28;20223;-63
2021/01/07 10:22:02;;;;;;;4.72;2.28;;;4.20;99.90;;;;;;5074159;28;20251;-62
2021/01/07 10:24:29;;;;;;;4.95;2.33;;;4.00;99.90;;;;;;5071300;28;20165;-62
2021/01/07 10:27:03;;;;;;;4.05;2.42;;;3.90;99.90;;;;;;5074368;28;20613;-60
2021/01/07 10:29:33;;;;;;;3.50;2.90;;;4.00;99.90;;;;;;5073945;28;20184;-59
2021/01/07 10:32:04;;;;;;;11.82;5.28;;;4.20;99.90;;;;;;5072253;28;20185;-60
2021/01/07 10:34:33;;;;;;;7.53;3.22;;;4.30;99.90;;;;;;5074235;28;20640;-60
2021/01/07 10:37:03;;;;;;;4.43;2.50;;;4.00;99.90;;;;;;5072152;28;20184;-60
2021/01/07 10:39:33;;;;;;;3.65;1.70;;;4.00;99.90;;;;;;5073910;28;20251;-61
2021/01/07 10:42:00;;;;;;;20.60;11.07;;;4.00;99.90;;;;;;5068695;28;20187;-62
2021/01/07 10:44:28;;;;;;;11.82;6.40;;;4.00;99.90;;;;;;5073858;28;20176;-62
2021/01/07 10:46:58;;;;;;;14.25;7.47;;;4.20;99.90;;;;;;5074241;28;20202;-60
2021/01/07 10:49:29;;;;;;;3.33;2.05;;;4.20;99.90;;;;;;5073898;28;20181;-61
2021/01/07 10:52:15;;;;;;;4.85;2.75;;;4.10;45.50;;;;;;5074037;28;20188;-60
2021/01/07 10:55:07;;;;;;;6.05;2.60;;;4.20;85.90;;;;;;5072526;28;20746;-62
2021/01/07 10:57:58;;;;;;;4.45;2.08;;;4.20;39.80;;;;;;5073818;28;20176;-61
2021/01/07 11:00:37;;;;;;;3.50;2.00;;;4.50;99.90;;;;;;5072550;28;20285;-62
2021/01/07 11:03:21;;;;;;;3.17;2.53;;;4.60;1.00;;;;;;5074142;28;20511;-63
2021/01/07 11:05:54;;;;;;;3.38;2.10;;;4.60;1.00;;;;;;5071996;28;20560;-61
2021/01/07 11:08:32;;;;;;;4.55;3.25;;;4.30;1.00;;;;;;5073763;28;20263;-64
2021/01/07 11:11:00;;;;;;;2.88;1.85;;;4.20;1.00;;;;;;5074027;28;20188;-64
2021/01/07 11:13:35;;;;;;;3.30;1.95;;;3.90;1.00;;;;;;5071979;28;20199;-60
2021/01/07 11:16:02;;;;;;;5.18;2.67;;;4.10;99.90;;;;;;5073337;28;20180;-62
2021/01/07 11:18:30;;;;;;;2.47;1.75;;;4.10;99.90;;;;;;5073795;28;20204;-60
2021/01/07 11:21:01;;;;;;;4.05;2.40;;;4.00;71.90;;;;;;5074165;28;20251;-61
2021/01/07 11:23:27;;;;;;;4.32;2.25;;;3.90;99.90;;;;;;5073309;28;20180;-61
2021/01/07 11:25:53;;;;;;;3.42;1.60;;;3.80;99.90;;;;;;5073396;28;20212;-61
2021/01/07 11:28:19;;;;;;;3.30;2.40;;;3.90;99.90;;;;;;5073828;28;20191;-62
2021/01/07 11:30:46;;;;;;;5.83;2.30;;;4.00;99.90;;;;;;5073920;28;20434;-61
2021/01/07 11:33:15;;;;;;;5.65;2.15;;;4.00;99.90;;;;;;5073452;28;20497;-60
2021/01/07 11:35:46;;;;;;;3.35;2.03;;;3.90;99.90;;;;;;5073334;28;20203;-58
2021/01/07 11:38:25;;;;;;;4.03;2.38;;;4.00;99.90;;;;;;5072971;28;20664;-58
2021/01/07 11:40:58;;;;;;;5.70;2.70;;;3.80;99.90;;;;;;5072892;28;20216;-61
2021/01/07 11:43:34;;;;;;;3.88;2.35;;;3.60;99.90;;;;;;5072172;28;20582;-64
2021/01/07 11:46:01;;;;;;;3.20;2.70;;;3.30;99.90;;;;;;5087126;28;20176;-63
2021/01/07 11:48:31;;;;;;;4.80;2.65;;;3.50;99.90;;;;;;5072993;28;20180;-63
2021/01/07 11:51:07;;;;;;;4.50;2.28;;;3.70;99.90;;;;;;5056504;28;20187;-64
2021/01/07 11:53:33;;;;;;;12.48;6.93;;;3.40;99.90;;;;;;5076711;28;20180;-63
2021/01/07 11:56:00;;;;;;;4.17;3.00;;;3.50;99.90;;;;;;5072854;28;20322;-62
2021/01/07 11:58:27;;;;;;;9.40;5.88;;;3.50;1.00;;;;;;5072999;28;20908;-62
2021/01/07 12:00:59;;;;;;;2.78;1.95;;;3.60;1.00;;;;;;5072954;28;20637;-62
2021/01/07 12:03:33;;;;;;;3.90;2.35;;;3.60;99.90;;;;;;5072988;28;20172;-62
2021/01/07 12:06:07;;;;;;;4.68;2.35;;;3.70;1.00;;;;;;5073298;28;20487;-61
2021/01/07 12:09:08;;;;;;;2.75;1.80;;;3.70;99.90;;;;;;5073554;28;20176;-61
2021/01/07 12:11:59;;;;;;;3.72;2.47;;;3.60;99.90;;;;;;5072156;28;20180;-65
2021/01/07 12:14:46;;;;;;;2.95;2.13;;;3.60;99.90;;;;;;5073400;28;20245;-62
2021/01/07 12:17:13;;;;;;;2.38;1.98;;;3.70;1.00;;;;;;5073429;28;20358;-61
2021/01/07 12:19:41;;;;;;;2.03;1.73;;;3.80;99.90;;;;;;5074038;28;20234;-63
2021/01/07 12:22:08;;;;;;;2.30;1.50;;;3.60;99.90;;;;;;5075703;28;20639;-62
2021/01/07 12:24:34;;;;;;;2.97;1.83;;;3.30;99.90;;;;;;5074989;28;20180;-63
2021/01/07 12:27:01;;;;;;;2.78;1.90;;;3.30;1.00;;;;;;5074674;28;20177;-59
2021/01/07 12:29:27;;;;;;;3.65;1.75;;;3.50;1.00;;;;;;5075141;28;20303;-61
2021/01/07 12:31:55;;;;;;;3.40;2.43;;;3.60;1.00;;;;;;5076637;28;20218;-62
2021/01/07 12:34:26;;;;;;;2.33;1.90;;;3.60;1.00;;;;;;5075585;28;20176;-61
2021/01/07 12:37:13;;;;;;;2.47;1.95;;;3.80;1.00;;;;;;5078895;28;20373;-62
2021/01/07 12:40:06;;;;;;;3.50;2.60;;;4.00;1.00;;;;;;5080172;28;20299;-63
2021/01/07 12:42:44;;;;;;;3.75;1.85;;;4.00;99.90;;;;;;5079636;28;20560;-62
2021/01/07 12:45:15;;;;;;;3.08;1.52;;;4.00;99.90;;;;;;5078504;28;20265;-62
2021/01/07 12:47:41;;;;;;;3.10;2.15;;;4.00;99.90;;;;;;5080207;28;20179;-62
2021/01/07 12:50:08;;;;;;;2.33;1.80;;;4.20;99.90;;;;;;5077428;28;20202;-63
2021/01/07 12:52:34;;;;;;;2.50;1.80;;;4.00;99.90;;;;;;5075714;28;20169;-63
2021/01/07 12:55:02;;;;;;;1.87;1.67;;;4.10;99.90;;;;;;5057035;28;20610;-61
2021/01/07 12:57:40;;;;;;;2.85;2.17;;;4.20;99.90;;;;;;5056764;28;20589;-63
2021/01/07 13:00:16;;;;;;;2.90;1.90;;;4.00;99.90;;;;;;5057195;28;20227;-62
2021/01/07 13:02:45;;;;;;;1.95;1.45;;;3.90;99.90;;;;;;5068146;28;20185;-61
2021/01/07 13:05:23;;;;;;;1.65;1.48;;;4.10;99.90;;;;;;5076298;28;20197;-60
2021/01/07 13:07:58;;;;;;;3.67;2.15;;;3.90;99.90;;;;;;5076874;28;20200;-60